Time;durP1;ratioP1;P1;durP2;ratioP2;P2;SDS_P1;SDS_P2;PMS_P1;PMS_P2;Temp;Humidity;BMP_temperature;BMP_pressure;BME280_temperature;BME280_humidity;BME280_pressure;Samples;Min_cycle;Max_cycle;Signal;HPM_P1;HPM_P2
2022/09/30 00:00:45;;;;;;;11.68;5.90;;;5.10;99.90;;;;;;5037714;28;20021;-76
2022/09/30 00:03:10;;;;;;;10.43;4.70;;;5.10;99.90;;;;;;5040418;28;20029;-76
2022/09/30 00:05:36;;;;;;;10.63;5.10;;;5.10;99.90;;;;;;5043240;28;20051;-76
2022/09/30 00:08:01;;;;;;;10.48;5.60;;;5.20;99.90;;;;;;5048355;28;20032;-76
2022/09/30 00:10:27;;;;;;;11.02;5.85;;;5.20;99.90;;;;;;5051457;28;20064;-76
2022/09/30 00:12:52;;;;;;;9.05;5.40;;;5.10;99.90;;;;;;5049696;28;20472;-76
2022/09/30 00:15:18;;;;;;;11.10;5.45;;;5.20;99.90;;;;;;5045190;28;20345;-76
2022/09/30 00:17:44;;;;;;;11.13;6.05;;;5.10;99.90;;;;;;5047043;28;20029;-76
2022/09/30 00:20:09;;;;;;;13.35;5.68;;;5.00;99.90;;;;;;5047043;28;20024;-76
2022/09/30 00:22:35;;;;;;;9.75;5.03;;;5.00;99.90;;;;;;5043547;28;20033;-76
2022/09/30 00:25:01;;;;;;;10.88;5.53;;;5.00;99.90;;;;;;5042297;28;20036;-76
2022/09/30 00:27:26;;;;;;;12.73;6.00;;;4.90;99.90;;;;;;5043088;28;20029;-76
2022/09/30 00:29:52;;;;;;;9.30;5.30;;;4.80;99.90;;;;;;5048071;28;20501;-76
2022/09/30 00:32:18;;;;;;;10.23;5.07;;;4.90;99.90;;;;;;5040205;28;20040;-76
2022/09/30 00:34:43;;;;;;;12.52;5.45;;;5.00;99.90;;;;;;5045894;28;20120;-76
2022/09/30 00:37:10;;;;;;;12.10;6.07;;;5.00;99.90;;;;;;5032556;28;20060;-76
2022/09/30 00:39:36;;;;;;;13.73;5.10;;;5.00;99.90;;;;;;5043244;28;20036;-76
2022/09/30 00:42:05;;;;;;;12.57;5.10;;;5.00;99.90;;;;;;5049019;28;20025;-76
2022/09/30 00:44:44;;;;;;;8.52;5.13;;;5.00;99.90;;;;;;5047595;28;20025;-76
2022/09/30 00:47:44;;;;;;;7.07;4.90;;;4.90;99.90;;;;;;5048663;28;20376;-76
2022/09/30 00:50:36;;;;;;;12.20;5.95;;;4.90;99.90;;;;;;5028882;28;20492;-76
2022/09/30 00:53:14;;;;;;;;;;;4.90;99.90;;;;;;5030138;28;20025;-76
2022/09/30 00:55:46;;;;;;;10.55;4.55;;;4.90;99.90;;;;;;5040925;28;20003;-76
2022/09/30 00:58:20;;;;;;;9.57;4.75;;;4.80;99.90;;;;;;5042382;28;20033;-75
2022/09/30 01:00:45;;;;;;;11.77;5.07;;;4.70;99.90;;;;;;5045804;28;20041;-76
2022/09/30 01:03:11;;;;;;;8.18;4.90;;;4.70;99.90;;;;;;5046542;28;20087;-76
2022/09/30 01:05:36;;;;;;;10.77;5.18;;;4.60;99.90;;;;;;5043650;28;20507;-76
2022/09/30 01:08:06;;;;;;;8.52;5.25;;;4.60;99.90;;;;;;5039976;28;20652;-76
2022/09/30 01:10:31;;;;;;;12.20;5.55;;;4.60;99.90;;;;;;5045853;28;20044;-76
2022/09/30 01:12:58;;;;;;;10.40;5.22;;;4.70;99.90;;;;;;5045285;28;20374;-76
2022/09/30 01:15:34;;;;;;;8.85;4.95;;;4.70;99.90;;;;;;5048313;28;20478;-76
2022/09/30 01:18:26;;;;;;;9.30;5.07;;;4.70;99.90;;;;;;5043216;28;20025;-76
2022/09/30 01:21:16;;;;;;;8.15;4.93;;;4.60;99.90;;;;;;5047254;28;20443;-76
2022/09/30 01:23:50;;;;;;;7.38;4.55;;;4.70;99.90;;;;;;5045419;28;20025;-75
2022/09/30 01:26:35;;;;;;;14.10;5.05;;;4.70;99.90;;;;;;5044096;28;20043;-75
2022/09/30 01:29:06;;;;;;;7.75;4.95;;;4.60;99.90;;;;;;5033999;28;20045;-76
2022/09/30 01:31:53;;;;;;;11.20;4.65;;;4.60;99.90;;;;;;5037428;28;20037;-76
2022/09/30 01:34:35;;;;;;;8.52;4.45;;;4.60;99.90;;;;;;5042189;28;20059;-75
2022/09/30 01:37:25;;;;;;;10.02;5.22;;;4.50;99.90;;;;;;5041654;28;20021;-76
2022/09/30 01:40:24;;;;;;;11.18;5.95;;;4.50;99.90;;;;;;5047852;28;20032;-75
2022/09/30 01:43:13;;;;;;;10.55;4.05;;;4.50;99.90;;;;;;5042529;28;20021;-77
2022/09/30 01:45:50;;;;;;;10.52;4.53;;;4.50;99.90;;;;;;5039714;28;20044;-77
2022/09/30 01:48:41;;;;;;;10.15;5.25;;;4.50;99.90;;;;;;5039023;28;20025;-77
2022/09/30 01:51:37;;;;;;;5.93;4.13;;;4.50;99.90;;;;;;5035952;28;20103;-77
2022/09/30 01:54:39;;;;;;;7.30;4.47;;;4.50;99.90;;;;;;5042172;28;20044;-77
2022/09/30 01:57:17;;;;;;;9.88;5.22;;;4.50;99.90;;;;;;5015919;28;20123;-77
2022/09/30 01:59:53;;;;;;;7.93;4.50;;;4.50;99.90;;;;;;5042176;28;20120;-77
2022/09/30 02:02:25;;;;;;;7.18;4.38;;;4.50;99.90;;;;;;5034858;28;20029;-77
2022/09/30 02:05:13;;;;;;;7.60;4.53;;;4.40;99.90;;;;;;5043004;28;20529;-77
2022/09/30 02:07:45;;;;;;;7.20;4.28;;;4.30;99.90;;;;;;5037904;28;20531;-77
2022/09/30 02:10:25;;;;;;;9.20;4.43;;;4.20;99.90;;;;;;5046961;28;20545;-78
2022/09/30 02:12:58;;;;;;;9.57;4.63;;;4.20;99.90;;;;;;5035707;28;20021;-75
2022/09/30 02:15:29;;;;;;;6.85;4.38;;;4.30;99.90;;;;;;5041796;28;20506;-76
2022/09/30 02:18:06;;;;;;;9.50;4.50;;;4.30;99.90;;;;;;5044591;28;20204;-76
2022/09/30 02:20:39;;;;;;;7.57;4.40;;;4.30;99.90;;;;;;5046409;28;20048;-75
2022/09/30 02:23:20;;;;;;;8.40;4.40;;;4.40;99.90;;;;;;5044048;28;20033;-76
2022/09/30 02:25:54;;;;;;;8.05;4.32;;;4.40;99.90;;;;;;5047167;28;20068;-76
2022/09/30 02:28:25;;;;;;;7.65;3.38;;;4.40;99.90;;;;;;5046588;28;20045;-75
2022/09/30 02:30:52;;;;;;;;;;;4.40;99.90;;;;;;5038363;28;20251;-76
2022/09/30 02:33:38;;;;;;;6.80;4.00;;;4.30;99.90;;;;;;5040289;28;19916;-75
2022/09/30 02:36:21;;;;;;;8.18;4.30;;;4.30;99.90;;;;;;5038063;28;20029;-76
2022/09/30 02:38:54;;;;;;;9.95;4.32;;;4.40;99.90;;;;;;5041936;28;20025;-76
2022/09/30 02:41:24;;;;;;;7.38;4.22;;;4.40;99.90;;;;;;5044333;28;20032;-76
2022/09/30 02:43:51;;;;;;;6.20;3.55;;;4.30;99.90;;;;;;5044721;28;20029;-75
2022/09/30 02:46:32;;;;;;;8.50;4.43;;;4.20;99.90;;;;;;5046440;28;20028;-76
2022/09/30 02:49:27;;;;;;;7.72;4.05;;;4.20;99.90;;;;;;5032939;28;20029;-76
2022/09/30 02:52:21;;;;;;;9.85;4.13;;;4.20;99.90;;;;;;5043375;28;20029;-76
2022/09/30 02:55:01;;;;;;;8.23;4.05;;;4.10;99.90;;;;;;5038282;28;20056;-76
2022/09/30 02:57:35;;;;;;;8.43;4.18;;;4.10;99.90;;;;;;5042443;28;20052;-76
2022/09/30 03:00:01;;;;;;;9.35;4.30;;;4.10;99.90;;;;;;5045768;28;20029;-76
2022/09/30 03:02:27;;;;;;;6.68;3.85;;;4.00;99.90;;;;;;5045163;28;20029;-75
2022/09/30 03:04:53;;;;;;;9.00;4.05;;;3.90;99.90;;;;;;5023818;28;20068;-76
2022/09/30 03:07:18;;;;;;;9.85;5.13;;;4.00;99.90;;;;;;5040848;28;20061;-76
2022/09/30 03:09:44;;;;;;;8.63;4.30;;;3.90;99.90;;;;;;5041249;28;20485;-76
2022/09/30 03:12:49;;;;;;;7.57;4.47;;;3.80;99.90;;;;;;5041908;28;20086;-78
2022/09/30 03:15:29;;;;;;;9.65;4.57;;;3.90;99.90;;;;;;5036758;28;20497;-76
2022/09/30 03:18:13;;;;;;;10.52;4.25;;;3.90;99.90;;;;;;5042547;28;20441;-74
2022/09/30 03:21:08;;;;;;;9.18;3.75;;;3.90;99.90;;;;;;5045144;28;20037;-79
2022/09/30 03:23:58;;;;;;;7.03;3.85;;;3.90;99.90;;;;;;5044541;28;20511;-78
2022/09/30 03:26:50;;;;;;;10.43;4.50;;;3.90;99.90;;;;;;5040419;28;20032;-79
2022/09/30 03:29:24;;;;;;;6.80;3.60;;;3.90;99.90;;;;;;5037257;28;20053;-78
2022/09/30 03:32:09;;;;;;;8.23;4.15;;;4.00;99.90;;;;;;5040021;28;20029;-78
2022/09/30 03:34:51;;;;;;;9.38;4.57;;;3.90;99.90;;;;;;5038968;28;20032;-78
2022/09/30 03:37:45;;;;;;;8.68;4.85;;;3.80;99.90;;;;;;5038469;28;20029;-78
2022/09/30 03:40:16;;;;;;;9.32;4.38;;;3.80;99.90;;;;;;5038549;28;20080;-78
2022/09/30 03:42:46;;;;;;;9.77;4.13;;;3.80;99.90;;;;;;5037344;28;20475;-78
2022/09/30 03:45:37;;;;;;;8.00;4.40;;;3.70;99.90;;;;;;5039426;28;20029;-78
2022/09/30 03:48:07;;;;;;;7.90;4.15;;;3.80;99.90;;;;;;5037937;28;20070;-78
2022/09/30 03:50:35;;;;;;;7.72;4.53;;;3.80;99.90;;;;;;5038859;28;20037;-78
2022/09/30 03:53:02;;;;;;;8.75;4.55;;;3.90;99.90;;;;;;5039008;28;20033;-80
2022/09/30 03:55:28;;;;;;;10.10;4.90;;;3.90;99.90;;;;;;5039209;28;20028;-80
2022/09/30 03:57:53;;;;;;;7.95;4.43;;;3.80;99.90;;;;;;5038431;28;20028;-79
2022/09/30 04:00:19;;;;;;;9.52;4.85;;;3.70;99.90;;;;;;5036854;28;20443;-80
2022/09/30 04:02:44;;;;;;;9.00;4.65;;;3.60;99.90;;;;;;5039204;28;20026;-80
2022/09/30 04:05:10;;;;;;;11.45;4.20;;;3.70;99.90;;;;;;5039215;28;20023;-78
2022/09/30 04:07:35;;;;;;;10.02;4.43;;;3.70;99.90;;;;;;5038059;28;20032;-78
2022/09/30 04:10:01;;;;;;;7.40;3.65;;;3.80;99.90;;;;;;5038089;28;20051;-78
2022/09/30 04:12:26;;;;;;;8.63;4.65;;;3.80;99.90;;;;;;5038055;28;20365;-78
2022/09/30 04:14:52;;;;;;;8.57;4.63;;;3.80;99.90;;;;;;5037384;28;20029;-78
2022/09/30 04:17:17;;;;;;;7.50;4.18;;;3.80;99.90;;;;;;5037804;28;20071;-79
2022/09/30 04:19:43;;;;;;;10.07;4.25;;;3.70;99.90;;;;;;5037596;28;20033;-78
2022/09/30 04:22:08;;;;;;;7.20;4.45;;;3.70;99.90;;;;;;5037650;28;20032;-78
2022/09/30 04:24:34;;;;;;;10.45;4.43;;;3.70;99.90;;;;;;5038797;28;20033;-77
2022/09/30 04:27:00;;;;;;;12.75;4.88;;;3.70;99.90;;;;;;5037202;28;20025;-78
2022/09/30 04:29:26;;;;;;;8.00;4.47;;;3.70;99.90;;;;;;5036930;28;20123;-78
2022/09/30 04:31:51;;;;;;;8.85;4.28;;;3.80;99.90;;;;;;5034384;28;20027;-78
2022/09/30 04:34:17;;;;;;;12.05;4.82;;;3.70;99.90;;;;;;5037948;28;20124;-78
2022/09/30 04:36:43;;;;;;;15.38;5.38;;;3.50;99.90;;;;;;5039925;28;20540;-78
2022/09/30 04:39:08;;;;;;;7.05;4.05;;;3.50;99.90;;;;;;5038117;28;20033;-78
2022/09/30 04:41:34;;;;;;;8.95;3.80;;;3.50;99.90;;;;;;5038692;28;20021;-78
2022/09/30 04:44:04;;;;;;;9.40;4.32;;;3.60;99.90;;;;;;5036853;28;20100;-78
2022/09/30 04:46:31;;;;;;;10.90;4.50;;;3.70;99.90;;;;;;5036724;28;20033;-78
2022/09/30 04:48:57;;;;;;;8.48;4.63;;;3.70;99.90;;;;;;5037871;28;20036;-78
2022/09/30 04:51:22;;;;;;;8.13;3.95;;;3.60;99.90;;;;;;5038050;28;20021;-78
2022/09/30 04:53:48;;;;;;;7.75;4.32;;;3.60;99.90;;;;;;5036296;28;20036;-78
2022/09/30 04:56:18;;;;;;;8.13;4.30;;;3.70;99.90;;;;;;5036240;28;20490;-76
2022/09/30 04:58:44;;;;;;;7.00;4.18;;;3.70;99.90;;;;;;5035210;28;20527;-76
2022/09/30 05:01:12;;;;;;;11.25;4.10;;;3.70;99.90;;;;;;5026852;28;20033;-75
2022/09/30 05:03:39;;;;;;;7.60;3.75;;;3.80;99.90;;;;;;5030595;28;20017;-75
2022/09/30 05:06:05;;;;;;;7.78;4.25;;;3.70;99.90;;;;;;5029522;28;21223;-75
2022/09/30 05:08:34;;;;;;;7.35;4.00;;;3.60;99.90;;;;;;5029050;28;20033;-75
2022/09/30 05:11:14;;;;;;;11.27;4.68;;;3.60;99.90;;;;;;5034057;28;20036;-76
2022/09/30 05:13:40;;;;;;;7.63;3.75;;;3.50;99.90;;;;;;5033827;28;20086;-76
2022/09/30 05:16:06;;;;;;;8.95;4.38;;;3.50;99.90;;;;;;5037831;28;20033;-76
2022/09/30 05:18:33;;;;;;;7.93;4.05;;;3.60;99.90;;;;;;5037230;28;20032;-76
2022/09/30 05:20:59;;;;;;;8.18;4.05;;;3.70;99.90;;;;;;5036950;28;20454;-78
2022/09/30 05:23:26;;;;;;;6.25;4.00;;;3.80;99.90;;;;;;5035830;28;20086;-77
2022/09/30 05:25:52;;;;;;;10.73;4.25;;;3.70;99.90;;;;;;5037689;28;20025;-76
2022/09/30 05:28:18;;;;;;;9.95;4.32;;;3.70;99.90;;;;;;5037286;28;20037;-75
2022/09/30 05:30:44;;;;;;;7.28;3.95;;;3.60;99.90;;;;;;5036719;28;20045;-81
2022/09/30 05:33:11;;;;;;;12.82;4.28;;;3.60;99.90;;;;;;5035163;28;20598;-78
2022/09/30 05:35:39;;;;;;;8.15;4.05;;;3.70;99.90;;;;;;5036812;28;20223;-78
2022/09/30 05:38:04;;;;;;;6.80;3.75;;;3.80;99.90;;;;;;5036176;28;20033;-78
2022/09/30 05:40:30;;;;;;;8.40;4.40;;;3.90;99.90;;;;;;5037446;28;20021;-78
2022/09/30 05:42:57;;;;;;;12.10;4.90;;;3.90;99.90;;;;;;5033643;28;20029;-79
2022/09/30 05:45:23;;;;;;;7.53;4.03;;;3.90;99.90;;;;;;5036571;28;20070;-82
2022/09/30 05:47:53;;;;;;;6.95;4.10;;;4.00;99.90;;;;;;5033945;28;20029;-82
2022/09/30 05:50:19;;;;;;;9.43;4.38;;;4.00;99.90;;;;;;5040403;28;20025;-79
2022/09/30 05:52:45;;;;;;;7.97;3.88;;;4.00;99.90;;;;;;5039044;28;20091;-79
2022/09/30 05:55:11;;;;;;;7.43;4.13;;;4.10;99.90;;;;;;5045168;28;20025;-79
2022/09/30 05:57:36;;;;;;;9.90;4.05;;;4.10;99.90;;;;;;5048511;28;20035;-79
2022/09/30 06:00:05;;;;;;;7.50;3.92;;;4.30;99.90;;;;;;5042323;28;20479;-81
2022/09/30 06:02:31;;;;;;;8.57;4.57;;;4.30;99.90;;;;;;5024611;28;20049;-77
2022/09/30 06:04:59;;;;;;;10.93;5.03;;;4.30;99.90;;;;;;5042933;28;20075;-78
2022/09/30 06:07:25;;;;;;;13.48;5.28;;;4.30;99.90;;;;;;5034692;28;20037;-78
2022/09/30 06:09:50;;;;;;;10.38;5.00;;;4.50;99.90;;;;;;5047950;28;20070;-78
2022/09/30 06:12:15;;;;;;;11.10;5.07;;;4.50;99.90;;;;;;5041661;28;20041;-78
2022/09/30 06:14:41;;;;;;;9.73;5.20;;;4.60;99.90;;;;;;5048177;28;20108;-78
2022/09/30 06:17:07;;;;;;;9.35;5.05;;;4.70;99.90;;;;;;5046585;28;20060;-78
2022/09/30 06:19:32;;;;;;;11.85;5.93;;;4.70;99.90;;;;;;5034130;28;20370;-78
2022/09/30 06:21:59;;;;;;;8.13;4.55;;;4.70;99.90;;;;;;5041396;28;20240;-80
2022/09/30 06:24:24;;;;;;;16.13;6.25;;;4.80;99.90;;;;;;5048019;28;20039;-78
2022/09/30 06:26:50;;;;;;;9.77;5.28;;;4.90;99.90;;;;;;5048071;28;20055;-79
2022/09/30 06:29:15;;;;;;;10.98;5.38;;;5.00;99.90;;;;;;5047816;28;20090;-78
2022/09/30 06:31:41;;;;;;;12.45;6.10;;;5.00;99.90;;;;;;5036899;28;20048;-78
2022/09/30 06:34:07;;;;;;;12.15;5.45;;;5.00;99.90;;;;;;5045950;28;20041;-78
2022/09/30 06:36:32;;;;;;;10.77;5.57;;;5.00;99.90;;;;;;5040120;28;20097;-78
2022/09/30 06:39:00;;;;;;;12.85;6.15;;;5.10;99.90;;;;;;5031020;28;20042;-78
2022/09/30 06:41:26;;;;;;;9.68;5.47;;;5.10;99.90;;;;;;5038124;28;20024;-78
2022/09/30 06:43:53;;;;;;;10.90;5.32;;;5.20;99.90;;;;;;5038527;28;20038;-78
2022/09/30 06:46:23;;;;;;;9.13;5.13;;;5.30;99.90;;;;;;5035419;28;20086;-77
2022/09/30 06:48:52;;;;;;;11.85;5.03;;;5.40;99.90;;;;;;5043505;28;20037;-78
2022/09/30 06:51:19;;;;;;;9.93;5.35;;;5.50;99.90;;;;;;5039698;28;20075;-78
2022/09/30 06:53:44;;;;;;;13.32;5.45;;;5.60;99.90;;;;;;5046917;28;20507;-77
2022/09/30 06:56:10;;;;;;;12.00;5.22;;;5.70;99.90;;;;;;5046298;28;20029;-77
2022/09/30 06:58:35;;;;;;;9.75;5.30;;;5.90;99.90;;;;;;5044012;28;20074;-78
2022/09/30 07:01:03;;;;;;;13.57;6.00;;;6.00;99.90;;;;;;5044599;28;20104;-77
2022/09/30 07:03:31;;;;;;;10.55;5.63;;;6.10;99.90;;;;;;5043560;28;20108;-78
2022/09/30 07:05:59;;;;;;;11.02;6.00;;;6.30;99.90;;;;;;5042282;28;20652;-78
2022/09/30 07:08:30;;;;;;;7.63;4.78;;;6.40;99.90;;;;;;5041932;28;20084;-78
2022/09/30 07:10:56;;;;;;;13.00;5.68;;;6.60;99.90;;;;;;5049860;28;20090;-77
2022/09/30 07:13:22;;;;;;;9.85;5.97;;;6.70;99.90;;;;;;5045016;28;20037;-77
2022/09/30 07:15:48;;;;;;;10.95;6.53;;;6.80;99.90;;;;;;5048875;28;20075;-77
2022/09/30 07:18:19;;;;;;;9.32;6.15;;;7.00;99.90;;;;;;5042197;28;20070;-81
2022/09/30 07:20:47;;;;;;;9.80;5.78;;;7.20;99.90;;;;;;5040250;28;20035;-85
2022/09/30 07:23:13;;;;;;;9.35;5.72;;;7.30;99.90;;;;;;5037076;28;20060;-80
2022/09/30 07:25:38;;;;;;;14.30;5.50;;;7.60;99.90;;;;;;5048873;28;20064;-77
2022/09/30 07:28:04;;;;;;;10.10;6.10;;;7.80;99.90;;;;;;5042981;28;20383;-77
2022/09/30 07:30:30;;;;;;;12.43;6.65;;;7.90;99.90;;;;;;5041646;28;20128;-77
2022/09/30 07:32:55;;;;;;;13.18;6.43;;;8.10;99.90;;;;;;5037320;28;20397;-78
2022/09/30 07:35:20;;;;;;;14.93;6.13;;;8.20;99.90;;;;;;5041337;28;20072;-78
2022/09/30 07:37:46;;;;;;;11.20;6.25;;;8.30;99.90;;;;;;5042311;28;20027;-77
2022/09/30 07:40:12;;;;;;;10.57;5.85;;;8.50;99.90;;;;;;5042353;28;20454;-77
2022/09/30 07:42:44;;;;;;;9.75;6.05;;;8.60;99.90;;;;;;5049577;28;20021;-77
2022/09/30 07:45:10;;;;;;;9.90;5.82;;;8.70;99.90;;;;;;5044118;28;20032;-77
2022/09/30 07:47:35;;;;;;;9.63;5.07;;;8.80;99.90;;;;;;5040479;28;20067;-77
2022/09/30 07:50:01;;;;;;;16.65;6.65;;;9.00;99.90;;;;;;5045559;28;20436;-75
2022/09/30 07:52:26;;;;;;;11.40;5.97;;;9.20;99.90;;;;;;5042854;28;20095;-76
2022/09/30 07:54:54;;;;;;;9.98;5.93;;;9.30;99.90;;;;;;5041776;28;20032;-74
2022/09/30 07:57:20;;;;;;;17.00;6.65;;;9.50;99.90;;;;;;5042127;28;20053;-77
2022/09/30 07:59:45;;;;;;;9.18;5.88;;;9.70;99.90;;;;;;5046176;28;20578;-78
2022/09/30 08:02:16;;;;;;;10.05;5.82;;;9.80;99.90;;;;;;5040823;28;20492;-81
2022/09/30 08:04:42;;;;;;;9.18;5.18;;;9.90;99.90;;;;;;5035948;28;20037;-78
2022/09/30 08:07:07;;;;;;;12.73;6.43;;;10.10;99.90;;;;;;5045177;28;20511;-78
2022/09/30 08:09:33;;;;;;;10.15;5.65;;;10.20;99.90;;;;;;5035094;28;20036;-78
2022/09/30 08:12:02;;;;;;;12.10;6.05;;;10.40;99.90;;;;;;5057819;28;20575;-78
2022/09/30 08:14:27;;;;;;;10.77;5.75;;;10.50;99.90;;;;;;5043501;28;20040;-78
2022/09/30 08:16:55;;;;;;;9.60;5.50;;;10.70;99.90;;;;;;5038016;28;20021;-77
2022/09/30 08:19:23;;;;;;;14.60;5.97;;;10.80;99.90;;;;;;5040044;28;20053;-79
2022/09/30 08:21:49;;;;;;;10.20;5.45;;;11.00;99.90;;;;;;5042651;28;20020;-80
2022/09/30 08:24:15;;;;;;;10.20;5.05;;;11.10;99.90;;;;;;5041460;28;20033;-79
2022/09/30 08:26:41;;;;;;;12.23;5.63;;;11.30;99.90;;;;;;5038628;28;20033;-79
2022/09/30 08:29:07;;;;;;;8.82;5.35;;;11.40;99.90;;;;;;5030452;28;20462;-79
2022/09/30 08:31:32;;;;;;;7.43;4.78;;;11.60;99.90;;;;;;5037069;28;20068;-79
2022/09/30 08:33:58;;;;;;;8.63;4.50;;;11.70;99.90;;;;;;5039340;28;20419;-79
2022/09/30 08:36:26;;;;;;;8.77;4.90;;;11.80;99.90;;;;;;5034914;28;20103;-78
2022/09/30 08:38:52;;;;;;;14.38;4.55;;;11.90;99.90;;;;;;5040535;28;20035;-79
2022/09/30 08:42:03;;;;;;;10.57;5.57;;;12.00;99.90;;;;;;5038598;28;20022;-80
2022/09/30 08:44:44;;;;;;;8.73;5.05;;;12.10;99.90;;;;;;5041704;28;20037;-79
2022/09/30 08:47:35;;;;;;;8.10;4.32;;;12.20;99.90;;;;;;5040022;28;20467;-78
2022/09/30 08:50:24;;;;;;;9.40;4.97;;;12.50;99.90;;;;;;5038422;28;20357;-78
2022/09/30 08:52:56;;;;;;;10.93;4.95;;;12.60;99.90;;;;;;5036450;28;20043;-78
2022/09/30 08:55:27;;;;;;;;;;;12.60;99.90;;;;;;5041991;28;20054;-79
2022/09/30 08:57:55;;;;;;;;;;;12.80;99.90;;;;;;5048140;28;20457;-80
2022/09/30 09:00:21;;;;;;;9.55;4.10;;;13.00;99.90;;;;;;5044992;28;19909;-79
2022/09/30 09:03:00;;;;;;;9.38;4.45;;;13.20;99.90;;;;;;5044049;28;20471;-77
2022/09/30 09:05:32;;;;;;;6.55;4.53;;;13.40;99.90;;;;;;5043016;28;20033;-78
2022/09/30 09:08:28;;;;;;;7.65;4.70;;;13.50;99.90;;;;;;5034419;28;20361;-79
2022/09/30 09:11:04;;;;;;;9.48;4.93;;;13.60;99.90;;;;;;5057999;28;20036;-78
2022/09/30 09:13:45;;;;;;;9.45;4.72;;;13.70;99.90;;;;;;5040372;28;20047;-78
2022/09/30 09:16:16;;;;;;;8.57;5.40;;;13.90;99.90;;;;;;5036781;28;20041;-79
2022/09/30 09:19:10;;;;;;;6.68;3.95;;;14.00;99.90;;;;;;5040326;28;20052;-79
2022/09/30 09:22:00;;;;;;;8.15;4.28;;;14.00;99.90;;;;;;5039534;28;20031;-79
2022/09/30 09:24:39;;;;;;;6.68;4.13;;;13.90;99.90;;;;;;5038361;28;20040;-79
2022/09/30 09:27:20;;;;;;;7.90;4.25;;;13.90;99.90;;;;;;5041138;28;20028;-79
2022/09/30 09:29:55;;;;;;;9.15;4.85;;;14.10;99.90;;;;;;5044831;28;20076;-79
2022/09/30 09:32:20;;;;;;;8.27;4.82;;;14.00;99.90;;;;;;5045024;28;20043;-81
2022/09/30 09:35:00;;;;;;;8.02;3.97;;;14.10;99.90;;;;;;5037225;28;20017;-78
2022/09/30 09:40:56;;;;;;;7.28;4.60;;;14.30;99.90;;;;;;5047109;28;20063;-78
2022/09/30 09:43:47;;;;;;;8.32;4.50;;;14.50;99.50;;;;;;5035530;28;20089;-78
2022/09/30 09:46:36;;;;;;;8.13;5.07;;;14.60;98.20;;;;;;5043382;28;20033;-78
2022/09/30 09:49:19;;;;;;;7.60;4.45;;;14.70;98.60;;;;;;5037168;28;20027;-78
2022/09/30 09:52:04;;;;;;;7.80;4.80;;;14.80;97.40;;;;;;5036461;28;20032;-77
2022/09/30 09:54:33;;;;;;;8.43;4.50;;;14.90;96.30;;;;;;5041801;28;20028;-78
2022/09/30 09:57:08;;;;;;;7.85;4.40;;;15.10;96.00;;;;;;5043504;28;20023;-78
2022/09/30 09:59:34;;;;;;;6.55;4.00;;;15.20;96.40;;;;;;5044215;28;20389;-79
2022/09/30 10:02:00;;;;;;;11.32;4.45;;;15.30;94.40;;;;;;5046522;28;20086;-79
2022/09/30 10:04:29;;;;;;;7.20;4.88;;;15.40;94.30;;;;;;5038441;28;20111;-80
2022/09/30 10:07:12;;;;;;;6.55;4.68;;;15.40;93.60;;;;;;5032873;28;20025;-78
2022/09/30 10:09:41;;;;;;;6.15;4.20;;;15.60;92.70;;;;;;5040809;28;20489;-80
2022/09/30 10:12:06;;;;;;;6.35;4.22;;;15.50;92.50;;;;;;5050553;28;20044;-80
2022/09/30 10:14:47;;;;;;;7.07;4.32;;;15.60;92.40;;;;;;5039393;28;20048;-80
2022/09/30 10:17:33;;;;;;;6.38;3.42;;;15.70;92.40;;;;;;5040009;28;20043;-80
2022/09/30 10:20:14;;;;;;;7.03;3.90;;;15.90;92.50;;;;;;5039173;28;20029;-79
2022/09/30 10:22:40;;;;;;;4.47;3.25;;;16.00;91.00;;;;;;5040956;28;20040;-79
2022/09/30 10:25:22;;;;;;;4.68;2.72;;;16.20;90.80;;;;;;5040901;28;20036;-80
2022/09/30 10:27:53;;;;;;;5.10;3.10;;;16.30;91.70;;;;;;5043095;28;20043;-78
2022/09/30 10:30:42;;;;;;;5.25;3.08;;;16.60;91.70;;;;;;5043965;28;20044;-78
2022/09/30 10:33:19;;;;;;;5.10;2.97;;;16.80;90.00;;;;;;5042094;28;20037;-78
2022/09/30 10:35:55;;;;;;;5.03;3.45;;;17.00;88.30;;;;;;5042135;28;20041;-77
2022/09/30 10:38:24;;;;;;;4.53;3.17;;;17.20;86.30;;;;;;5036268;28;20570;-77
2022/09/30 10:40:50;;;;;;;6.25;2.78;;;17.50;86.60;;;;;;5042194;28;20036;-82
2022/09/30 10:43:26;;;;;;;4.30;2.85;;;17.70;86.60;;;;;;5034779;28;20106;-79
2022/09/30 10:48:49;;;;;;;3.40;2.42;;;17.80;79.80;;;;;;5005712;28;20118;-80
2022/09/30 10:51:23;;;;;;;3.53;2.67;;;18.20;80.00;;;;;;5041359;28;20548;-80
2022/09/30 10:53:48;;;;;;;5.75;3.67;;;18.90;77.30;;;;;;5040734;28;20480;-78
2022/09/30 10:56:36;;;;;;;5.28;2.80;;;19.90;73.00;;;;;;5040455;28;20047;-80
2022/09/30 10:59:05;;;;;;;4.55;3.03;;;20.10;70.30;;;;;;5039464;28;20404;-80
2022/09/30 11:01:59;;;;;;;3.70;2.40;;;21.00;67.60;;;;;;5046175;28;20108;-79
2022/09/30 11:05:03;;;;;;;3.42;2.40;;;21.90;65.30;;;;;;5047485;28;20036;-81
2022/09/30 11:07:38;;;;;;;3.00;2.40;;;24.50;57.20;;;;;;5047190;28;20537;-79
2022/09/30 11:10:22;;;;;;;3.22;2.70;;;26.30;52.40;;;;;;5045980;28;20029;-79
2022/09/30 11:12:56;;;;;;;3.97;2.58;;;28.30;49.10;;;;;;5043176;28;20029;-80
2022/09/30 11:15:27;;;;;;;7.70;2.75;;;29.30;42.50;;;;;;5036935;28;20039;-78
2022/09/30 11:17:59;;;;;;;4.28;2.13;;;29.80;41.50;;;;;;5040347;28;20031;-80
2022/09/30 11:20:29;;;;;;;3.17;2.33;;;31.80;40.20;;;;;;5038000;28;20036;-79
2022/09/30 11:23:04;;;;;;;3.25;2.45;;;33.10;35.60;;;;;;5043605;28;20183;-80
2022/09/30 11:25:42;;;;;;;2.72;2.22;;;32.90;35.40;;;;;;5047010;28;20116;-80
2022/09/30 11:28:26;;;;;;;3.47;2.65;;;33.10;35.30;;;;;;5047268;28;20405;-78
2022/09/30 11:31:31;;;;;;;3.58;2.15;;;33.20;34.20;;;;;;5047384;28;20064;-79
2022/09/30 11:34:15;;;;;;;3.15;2.33;;;32.90;34.90;;;;;;5042523;28;20167;-79
2022/09/30 11:37:05;;;;;;;4.07;2.67;;;30.20;37.90;;;;;;5049838;28;20063;-81
2022/09/30 11:39:30;;;;;;;3.30;2.45;;;24.50;44.60;;;;;;5051134;28;20021;-80
2022/09/30 11:42:24;;;;;;;4.30;2.65;;;25.50;44.40;;;;;;5048257;28;20021;-80
2022/09/30 11:45:03;;;;;;;3.05;1.98;;;22.90;48.90;;;;;;5024995;28;20041;-79
2022/09/30 11:48:14;;;;;;;2.92;2.33;;;23.00;50.80;;;;;;5046576;28;20063;-79
2022/09/30 11:50:49;;;;;;;3.90;2.00;;;29.10;41.00;;;;;;5050023;28;20032;-79
2022/09/30 11:53:31;;;;;;;5.40;2.05;;;33.10;36.00;;;;;;5048048;28;20029;-80
2022/09/30 11:56:10;;;;;;;4.15;2.08;;;34.30;33.70;;;;;;5050790;28;20020;-81
2022/09/30 11:58:46;;;;;;;3.03;2.13;;;29.00;39.10;;;;;;5041742;28;20025;-78
2022/09/30 12:01:29;;;;;;;3.17;2.25;;;26.10;43.50;;;;;;5044658;28;20052;-80
2022/09/30 12:04:35;;;;;;;3.15;2.08;;;24.50;45.70;;;;;;5043812;28;20029;-79
2022/09/30 12:07:28;;;;;;;3.05;2.17;;;24.60;45.50;;;;;;5046435;28;20058;-79
2022/09/30 12:10:13;;;;;;;3.00;1.98;;;24.90;47.10;;;;;;5045312;28;20435;-79
2022/09/30 12:12:38;;;;;;;2.28;1.85;;;30.30;39.50;;;;;;5048033;28;20040;-79
2022/09/30 12:15:06;;;;;;;2.70;2.08;;;27.30;40.20;;;;;;5045329;28;20041;-77
2022/09/30 12:17:45;;;;;;;2.80;2.03;;;23.80;47.00;;;;;;5033089;28;20091;-77
2022/09/30 12:20:31;;;;;;;2.40;1.80;;;22.50;51.50;;;;;;5045843;28;20029;-78
2022/09/30 12:23:18;;;;;;;1.52;1.42;;;22.50;52.20;;;;;;5039427;28;20025;-77
2022/09/30 12:25:53;;;;;;;2.35;1.60;;;28.90;43.60;;;;;;5043679;28;20033;-76
2022/09/30 12:31:53;;;;;;;1.98;1.60;;;27.00;42.40;;;;;;5044235;28;20057;-78
2022/09/30 12:34:47;;;;;;;1.63;1.52;;;24.20;45.60;;;;;;5034346;28;20445;-76
2022/09/30 12:38:04;;;;;;;1.85;1.48;;;23.60;48.60;;;;;;5049278;28;20030;-77
2022/09/30 12:40:49;;;;;;;1.55;1.10;;;23.60;49.20;;;;;;4988576;28;20600;-76
2022/09/30 12:43:24;;;;;;;1.90;1.10;;;26.60;42.10;;;;;;5045845;28;20362;-76
2022/09/30 12:45:55;;;;;;;1.30;1.20;;;24.20;45.70;;;;;;5045505;28;20178;-76
2022/09/30 12:48:26;;;;;;;1.40;1.20;;;22.20;47.60;;;;;;5049438;28;20028;-76
2022/09/30 12:50:56;;;;;;;1.52;1.10;;;21.00;51.50;;;;;;5048541;28;20037;-76
2022/09/30 12:53:31;;;;;;;1.75;1.10;;;23.50;48.80;;;;;;5046642;28;20033;-77
2022/09/30 12:56:09;;;;;;;2.25;1.13;;;26.00;46.10;;;;;;5047238;28;20033;-77
2022/09/30 12:58:42;;;;;;;1.40;1.13;;;26.90;42.90;;;;;;5049405;28;20017;-76
2022/09/30 13:01:29;;;;;;;1.38;1.15;;;29.40;38.00;;;;;;5047781;28;20119;-77
2022/09/30 13:03:58;;;;;;;1.30;1.15;;;27.60;37.70;;;;;;5043954;28;20029;-75
2022/09/30 13:06:24;;;;;;;2.25;1.10;;;23.10;45.10;;;;;;5044985;28;20087;-76
2022/09/30 13:08:56;;;;;;;1.95;1.00;;;26.00;42.60;;;;;;5048137;28;20032;-76
2022/09/30 13:11:43;;;;;;;3.03;1.10;;;30.90;36.50;;;;;;5044087;28;20017;-75
2022/09/30 13:14:35;;;;;;;1.25;1.02;;;35.30;32.20;;;;;;5034306;28;20033;-77
2022/09/30 13:17:00;;;;;;;1.73;1.23;;;38.10;29.20;;;;;;5036598;28;20036;-77
2022/09/30 13:19:39;;;;;;;0.90;0.90;;;39.50;29.20;;;;;;5038854;28;20079;-80
2022/09/30 13:22:17;;;;;;;1.48;1.20;;;39.90;27.30;;;;;;5044129;28;20300;-75
2022/09/30 13:24:59;;;;;;;1.38;1.20;;;33.60;29.90;;;;;;5041248;28;20023;-79
2022/09/30 13:27:51;;;;;;;1.83;1.17;;;31.40;33.40;;;;;;5039230;28;20100;-76
2022/09/30 13:30:38;;;;;;;1.73;1.25;;;33.50;32.10;;;;;;5041177;28;20560;-77
2022/09/30 13:33:27;;;;;;;1.17;1.08;;;32.20;32.30;;;;;;5035012;28;20094;-77